sensor_id;sensor_type;location;lat;lon;timestamp;temperature;humidity
6841;DHT22;3458;53.678;14.080;2024-02-14T00:02:06;6.70;99.90
6841;DHT22;3458;53.678;14.080;2024-02-14T00:04:32;6.70;99.90
6841;DHT22;3458;53.678;14.080;2024-02-14T00:06:57;6.70;99.90
6841;DHT22;3458;53.678;14.080;2024-02-14T00:09:23;6.70;99.90
6841;DHT22;3458;53.678;14.080;2024-02-14T00:11:48;6.70;99.90
6841;DHT22;3458;53.678;14.080;2024-02-14T00:14:14;6.70;99.90
6841;DHT22;3458;53.678;14.080;2024-02-14T00:16:39;6.70;99.90
6841;DHT22;3458;53.678;14.080;2024-02-14T00:19:05;6.60;99.90
6841;DHT22;3458;53.678;14.080;2024-02-14T00:21:30;6.60;99.90
6841;DHT22;3458;53.678;14.080;2024-02-14T00:23:57;6.60;99.90
6841;DHT22;3458;53.678;14.080;2024-02-14T00:26:24;6.50;99.90
6841;DHT22;3458;53.678;14.080;2024-02-14T00:28:49;6.40;99.90
6841;DHT22;3458;53.678;14.080;2024-02-14T00:31:16;6.40;99.90
6841;DHT22;3458;53.678;14.080;2024-02-14T00:33:41;6.40;99.90
6841;DHT22;3458;53.678;14.080;2024-02-14T00:36:07;6.40;99.90
6841;DHT22;3458;53.678;14.080;2024-02-14T00:38:32;6.40;99.90
6841;DHT22;3458;53.678;14.080;2024-02-14T00:40:58;6.40;99.90
6841;DHT22;3458;53.678;14.080;2024-02-14T00:43:23;6.40;99.90
6841;DHT22;3458;53.678;14.080;2024-02-14T00:45:49;6.40;99.90
6841;DHT22;3458;53.678;14.080;2024-02-14T00:48:14;6.40;99.90
6841;DHT22;3458;53.678;14.080;2024-02-14T00:50:40;6.40;99.90
6841;DHT22;3458;53.678;14.080;2024-02-14T00:53:05;6.40;99.90
6841;DHT22;3458;53.678;14.080;2024-02-14T00:55:31;6.30;99.90
6841;DHT22;3458;53.678;14.080;2024-02-14T00:57:57;6.30;99.90
6841;DHT22;3458;53.678;14.080;2024-02-14T01:00:23;6.30;99.90
6841;DHT22;3458;53.678;14.080;2024-02-14T01:02:48;6.30;99.90
6841;DHT22;3458;53.678;14.080;2024-02-14T01:05:14;6.20;99.90
6841;DHT22;3458;53.678;14.080;2024-02-14T01:07:39;6.20;99.90
6841;DHT22;3458;53.678;14.080;2024-02-14T01:10:05;6.20;99.90
6841;DHT22;3458;53.678;14.080;2024-02-14T01:12:31;6.20;99.90
6841;DHT22;3458;53.678;14.080;2024-02-14T01:14:57;6.20;99.90
6841;DHT22;3458;53.678;14.080;2024-02-14T01:17:22;6.10;99.90
6841;DHT22;3458;53.678;14.080;2024-02-14T01:19:48;6.10;99.90
6841;DHT22;3458;53.678;14.080;2024-02-14T01:22:14;6.10;99.90
6841;DHT22;3458;53.678;14.080;2024-02-14T01:24:44;6.00;99.90
6841;DHT22;3458;53.678;14.080;2024-02-14T01:27:10;6.00;99.90
6841;DHT22;3458;53.678;14.080;2024-02-14T01:29:36;6.00;99.90
6841;DHT22;3458;53.678;14.080;2024-02-14T01:32:01;6.00;99.90
6841;DHT22;3458;53.678;14.080;2024-02-14T01:34:27;6.00;99.90
6841;DHT22;3458;53.678;14.080;2024-02-14T01:36:53;5.90;99.90
6841;DHT22;3458;53.678;14.080;2024-02-14T01:39:20;6.00;99.90
6841;DHT22;3458;53.678;14.080;2024-02-14T01:41:47;6.00;99.90
6841;DHT22;3458;53.678;14.080;2024-02-14T01:44:14;6.00;99.90
6841;DHT22;3458;53.678;14.080;2024-02-14T01:46:41;6.00;99.90
6841;DHT22;3458;53.678;14.080;2024-02-14T01:49:07;5.90;99.90
6841;DHT22;3458;53.678;14.080;2024-02-14T01:51:35;5.90;99.90
6841;DHT22;3458;53.678;14.080;2024-02-14T01:54:01;5.90;99.90
6841;DHT22;3458;53.678;14.080;2024-02-14T01:56:29;5.80;99.90
6841;DHT22;3458;53.678;14.080;2024-02-14T01:58:56;5.80;99.90
6841;DHT22;3458;53.678;14.080;2024-02-14T02:01:21;5.80;99.90
6841;DHT22;3458;53.678;14.080;2024-02-14T02:03:49;5.70;99.90
6841;DHT22;3458;53.678;14.080;2024-02-14T02:06:14;5.60;99.90
6841;DHT22;3458;53.678;14.080;2024-02-14T02:08:43;5.60;99.90
6841;DHT22;3458;53.678;14.080;2024-02-14T02:11:09;5.60;99.90
6841;DHT22;3458;53.678;14.080;2024-02-14T02:13:34;5.60;99.90
6841;DHT22;3458;53.678;14.080;2024-02-14T02:16:00;5.60;99.90
6841;DHT22;3458;53.678;14.080;2024-02-14T02:18:30;5.60;99.90
6841;DHT22;3458;53.678;14.080;2024-02-14T02:20:56;5.60;99.90
6841;DHT22;3458;53.678;14.080;2024-02-14T02:23:22;5.50;99.90
6841;DHT22;3458;53.678;14.080;2024-02-14T02:25:48;5.40;99.90
6841;DHT22;3458;53.678;14.080;2024-02-14T02:28:13;5.30;99.90
6841;DHT22;3458;53.678;14.080;2024-02-14T02:30:42;5.20;99.90
6841;DHT22;3458;53.678;14.080;2024-02-14T02:33:07;5.20;99.90
6841;DHT22;3458;53.678;14.080;2024-02-14T02:35:34;5.20;99.90
6841;DHT22;3458;53.678;14.080;2024-02-14T02:38:00;5.20;99.90
6841;DHT22;3458;53.678;14.080;2024-02-14T02:40:26;5.20;99.90
6841;DHT22;3458;53.678;14.080;2024-02-14T02:42:53;5.20;99.90
6841;DHT22;3458;53.678;14.080;2024-02-14T02:45:18;5.10;99.90
6841;DHT22;3458;53.678;14.080;2024-02-14T02:47:44;5.10;99.90
6841;DHT22;3458;53.678;14.080;2024-02-14T02:50:09;5.10;99.90
6841;DHT22;3458;53.678;14.080;2024-02-14T02:52:35;5.20;99.90
6841;DHT22;3458;53.678;14.080;2024-02-14T02:55:01;5.20;99.90
6841;DHT22;3458;53.678;14.080;2024-02-14T02:57:28;5.20;99.90
6841;DHT22;3458;53.678;14.080;2024-02-14T02:59:53;5.10;99.90
6841;DHT22;3458;53.678;14.080;2024-02-14T03:02:19;5.10;99.90
6841;DHT22;3458;53.678;14.080;2024-02-14T03:04:45;5.10;99.90
6841;DHT22;3458;53.678;14.080;2024-02-14T03:07:12;5.00;99.90
6841;DHT22;3458;53.678;14.080;2024-02-14T03:09:37;5.00;99.90
6841;DHT22;3458;53.678;14.080;2024-02-14T03:12:03;5.00;99.90
6841;DHT22;3458;53.678;14.080;2024-02-14T03:14:30;5.00;99.90
6841;DHT22;3458;53.678;14.080;2024-02-14T03:16:58;5.00;99.90
6841;DHT22;3458;53.678;14.080;2024-02-14T03:19:24;5.10;99.90
6841;DHT22;3458;53.678;14.080;2024-02-14T03:21:52;5.00;99.90
6841;DHT22;3458;53.678;14.080;2024-02-14T03:24:17;5.00;99.90
6841;DHT22;3458;53.678;14.080;2024-02-14T03:26:43;4.90;99.90
6841;DHT22;3458;53.678;14.080;2024-02-14T03:29:08;4.90;99.90
6841;DHT22;3458;53.678;14.080;2024-02-14T03:31:34;4.90;99.90
6841;DHT22;3458;53.678;14.080;2024-02-14T03:33:59;4.90;99.90
6841;DHT22;3458;53.678;14.080;2024-02-14T03:36:25;4.80;99.90
6841;DHT22;3458;53.678;14.080;2024-02-14T03:38:53;4.80;99.90
6841;DHT22;3458;53.678;14.080;2024-02-14T03:41:19;4.80;99.90
6841;DHT22;3458;53.678;14.080;2024-02-14T03:43:44;4.80;99.90
6841;DHT22;3458;53.678;14.080;2024-02-14T03:46:10;4.80;99.90
6841;DHT22;3458;53.678;14.080;2024-02-14T03:48:37;4.80;99.90
6841;DHT22;3458;53.678;14.080;2024-02-14T03:51:03;4.70;99.90
6841;DHT22;3458;53.678;14.080;2024-02-14T03:53:29;4.70;99.90
6841;DHT22;3458;53.678;14.080;2024-02-14T03:55:54;4.70;99.90
6841;DHT22;3458;53.678;14.080;2024-02-14T03:58:20;4.70;99.90
6841;DHT22;3458;53.678;14.080;2024-02-14T04:00:50;4.70;99.90
6841;DHT22;3458;53.678;14.080;2024-02-14T04:03:16;4.60;99.90
6841;DHT22;3458;53.678;14.080;2024-02-14T04:05:42;4.60;99.90
6841;DHT22;3458;53.678;14.080;2024-02-14T04:08:07;4.70;99.90
6841;DHT22;3458;53.678;14.080;2024-02-14T04:10:35;4.70;99.90
6841;DHT22;3458;53.678;14.080;2024-02-14T04:13:02;4.60;99.90
6841;DHT22;3458;53.678;14.080;2024-02-14T04:15:28;4.60;99.90
6841;DHT22;3458;53.678;14.080;2024-02-14T04:17:53;4.60;99.90
6841;DHT22;3458;53.678;14.080;2024-02-14T04:20:19;4.60;99.90
6841;DHT22;3458;53.678;14.080;2024-02-14T04:22:44;4.50;99.90
6841;DHT22;3458;53.678;14.080;2024-02-14T04:25:10;4.50;99.90
6841;DHT22;3458;53.678;14.080;2024-02-14T04:27:35;4.40;99.90
6841;DHT22;3458;53.678;14.080;2024-02-14T04:30:01;4.40;99.90
6841;DHT22;3458;53.678;14.080;2024-02-14T04:32:27;4.40;99.90
6841;DHT22;3458;53.678;14.080;2024-02-14T04:34:53;4.40;99.90
6841;DHT22;3458;53.678;14.080;2024-02-14T04:37:18;4.40;99.90
6841;DHT22;3458;53.678;14.080;2024-02-14T04:39:45;4.40;99.90
6841;DHT22;3458;53.678;14.080;2024-02-14T04:42:10;4.40;99.90
6841;DHT22;3458;53.678;14.080;2024-02-14T04:44:36;4.50;99.90
6841;DHT22;3458;53.678;14.080;2024-02-14T04:47:01;4.50;99.90
6841;DHT22;3458;53.678;14.080;2024-02-14T04:49:27;4.60;99.90
6841;DHT22;3458;53.678;14.080;2024-02-14T04:51:56;4.50;99.90
6841;DHT22;3458;53.678;14.080;2024-02-14T04:54:22;4.50;99.90
6841;DHT22;3458;53.678;14.080;2024-02-14T04:56:48;4.50;99.90
6841;DHT22;3458;53.678;14.080;2024-02-14T04:59:13;4.50;99.90
6841;DHT22;3458;53.678;14.080;2024-02-14T05:01:39;4.50;99.90
6841;DHT22;3458;53.678;14.080;2024-02-14T05:04:05;4.60;99.90
6841;DHT22;3458;53.678;14.080;2024-02-14T05:06:32;4.60;99.90
6841;DHT22;3458;53.678;14.080;2024-02-14T05:08:58;4.60;99.90
6841;DHT22;3458;53.678;14.080;2024-02-14T05:11:23;4.60;99.90
6841;DHT22;3458;53.678;14.080;2024-02-14T05:13:49;4.60;99.90
6841;DHT22;3458;53.678;14.080;2024-02-14T05:16:18;4.60;99.90
6841;DHT22;3458;53.678;14.080;2024-02-14T05:18:44;4.60;99.90
6841;DHT22;3458;53.678;14.080;2024-02-14T05:21:09;4.60;99.90
6841;DHT22;3458;53.678;14.080;2024-02-14T05:23:35;4.60;99.90
6841;DHT22;3458;53.678;14.080;2024-02-14T05:26:04;4.60;99.90
6841;DHT22;3458;53.678;14.080;2024-02-14T05:28:30;4.60;99.90
6841;DHT22;3458;53.678;14.080;2024-02-14T05:30:57;4.60;99.90
6841;DHT22;3458;53.678;14.080;2024-02-14T05:33:23;4.70;99.90
6841;DHT22;3458;53.678;14.080;2024-02-14T05:35:49;4.70;99.90
6841;DHT22;3458;53.678;14.080;2024-02-14T05:38:15;4.70;99.90
6841;DHT22;3458;53.678;14.080;2024-02-14T05:40:40;4.70;99.90
6841;DHT22;3458;53.678;14.080;2024-02-14T05:43:08;4.70;99.90
6841;DHT22;3458;53.678;14.080;2024-02-14T05:45:33;4.70;99.90
6841;DHT22;3458;53.678;14.080;2024-02-14T05:47:59;4.70;99.90
6841;DHT22;3458;53.678;14.080;2024-02-14T05:50:24;4.70;99.90
6841;DHT22;3458;53.678;14.080;2024-02-14T05:52:50;4.70;99.90
6841;DHT22;3458;53.678;14.080;2024-02-14T05:55:15;4.70;99.90
6841;DHT22;3458;53.678;14.080;2024-02-14T05:57:41;4.70;99.90
6841;DHT22;3458;53.678;14.080;2024-02-14T06:00:07;4.70;99.90
6841;DHT22;3458;53.678;14.080;2024-02-14T06:02:35;4.70;99.90
6841;DHT22;3458;53.678;14.080;2024-02-14T06:05:00;4.60;99.90
6841;DHT22;3458;53.678;14.080;2024-02-14T06:07:26;4.60;99.90
6841;DHT22;3458;53.678;14.080;2024-02-14T06:09:51;4.60;99.90
6841;DHT22;3458;53.678;14.080;2024-02-14T06:12:17;4.50;99.90
6841;DHT22;3458;53.678;14.080;2024-02-14T06:14:42;4.40;99.90
6841;DHT22;3458;53.678;14.080;2024-02-14T06:17:08;4.30;99.90
6841;DHT22;3458;53.678;14.080;2024-02-14T06:19:33;4.30;99.90
6841;DHT22;3458;53.678;14.080;2024-02-14T06:22:00;4.30;99.90
6841;DHT22;3458;53.678;14.080;2024-02-14T06:24:26;4.30;99.90
6841;DHT22;3458;53.678;14.080;2024-02-14T06:26:51;4.40;99.90
6841;DHT22;3458;53.678;14.080;2024-02-14T06:29:17;4.40;99.90
6841;DHT22;3458;53.678;14.080;2024-02-14T06:31:42;4.50;99.90
6841;DHT22;3458;53.678;14.080;2024-02-14T06:34:08;4.40;99.90
6841;DHT22;3458;53.678;14.080;2024-02-14T06:36:33;4.40;99.90
6841;DHT22;3458;53.678;14.080;2024-02-14T06:38:59;4.50;99.90
6841;DHT22;3458;53.678;14.080;2024-02-14T06:41:25;4.50;99.90
6841;DHT22;3458;53.678;14.080;2024-02-14T06:43:50;4.50;99.90
6841;DHT22;3458;53.678;14.080;2024-02-14T06:46:15;4.50;99.90
6841;DHT22;3458;53.678;14.080;2024-02-14T06:48:41;4.50;99.90
6841;DHT22;3458;53.678;14.080;2024-02-14T06:51:07;4.50;99.90
6841;DHT22;3458;53.678;14.080;2024-02-14T06:53:32;4.60;99.90
6841;DHT22;3458;53.678;14.080;2024-02-14T06:55:58;4.50;99.90
6841;DHT22;3458;53.678;14.080;2024-02-14T06:58:23;4.40;99.90
6841;DHT22;3458;53.678;14.080;2024-02-14T07:00:49;4.40;99.90
6841;DHT22;3458;53.678;14.080;2024-02-14T07:03:15;4.40;99.90
6841;DHT22;3458;53.678;14.080;2024-02-14T07:05:41;4.40;99.90
6841;DHT22;3458;53.678;14.080;2024-02-14T07:08:07;4.40;99.90
6841;DHT22;3458;53.678;14.080;2024-02-14T07:10:32;4.40;99.90
6841;DHT22;3458;53.678;14.080;2024-02-14T07:12:58;4.40;99.90
6841;DHT22;3458;53.678;14.080;2024-02-14T07:15:24;4.30;99.90
6841;DHT22;3458;53.678;14.080;2024-02-14T07:17:54;4.30;99.90
6841;DHT22;3458;53.678;14.080;2024-02-14T07:20:20;4.40;99.90
6841;DHT22;3458;53.678;14.080;2024-02-14T07:22:46;4.40;99.90
6841;DHT22;3458;53.678;14.080;2024-02-14T07:25:13;4.30;99.90
6841;DHT22;3458;53.678;14.080;2024-02-14T07:27:39;4.40;99.90
6841;DHT22;3458;53.678;14.080;2024-02-14T07:30:05;4.30;99.90
6841;DHT22;3458;53.678;14.080;2024-02-14T07:32:31;4.40;99.90
6841;DHT22;3458;53.678;14.080;2024-02-14T07:34:56;4.50;99.90
6841;DHT22;3458;53.678;14.080;2024-02-14T07:37:22;4.50;99.90
6841;DHT22;3458;53.678;14.080;2024-02-14T07:39:47;4.50;99.90
6841;DHT22;3458;53.678;14.080;2024-02-14T07:42:13;4.50;99.90
6841;DHT22;3458;53.678;14.080;2024-02-14T07:44:39;4.60;99.90
6841;DHT22;3458;53.678;14.080;2024-02-14T07:47:04;4.60;99.90
6841;DHT22;3458;53.678;14.080;2024-02-14T07:49:30;4.70;99.90
6841;DHT22;3458;53.678;14.080;2024-02-14T07:51:55;4.70;99.90
6841;DHT22;3458;53.678;14.080;2024-02-14T07:54:21;4.70;99.90
6841;DHT22;3458;53.678;14.080;2024-02-14T07:56:47;4.80;99.90
6841;DHT22;3458;53.678;14.080;2024-02-14T07:59:12;4.80;99.90
6841;DHT22;3458;53.678;14.080;2024-02-14T08:01:38;4.80;99.90
6841;DHT22;3458;53.678;14.080;2024-02-14T08:04:04;4.90;99.90
6841;DHT22;3458;53.678;14.080;2024-02-14T08:06:30;4.90;99.90
6841;DHT22;3458;53.678;14.080;2024-02-14T08:08:55;4.90;99.90
6841;DHT22;3458;53.678;14.080;2024-02-14T08:11:27;4.90;99.90
6841;DHT22;3458;53.678;14.080;2024-02-14T08:13:52;5.00;99.90
6841;DHT22;3458;53.678;14.080;2024-02-14T08:16:17;5.00;99.90
6841;DHT22;3458;53.678;14.080;2024-02-14T08:18:43;5.10;99.90
6841;DHT22;3458;53.678;14.080;2024-02-14T08:21:13;5.00;99.90
6841;DHT22;3458;53.678;14.080;2024-02-14T08:23:39;5.00;99.90
6841;DHT22;3458;53.678;14.080;2024-02-14T08:26:07;5.00;99.90
6841;DHT22;3458;53.678;14.080;2024-02-14T08:28:39;5.00;99.90
6841;DHT22;3458;53.678;14.080;2024-02-14T08:31:11;5.00;99.90
6841;DHT22;3458;53.678;14.080;2024-02-14T08:33:40;5.00;99.90
6841;DHT22;3458;53.678;14.080;2024-02-14T08:36:06;5.00;99.90
6841;DHT22;3458;53.678;14.080;2024-02-14T08:38:32;5.00;99.90
6841;DHT22;3458;53.678;14.080;2024-02-14T08:40:58;5.00;99.90
6841;DHT22;3458;53.678;14.080;2024-02-14T08:43:23;5.00;99.90
6841;DHT22;3458;53.678;14.080;2024-02-14T08:45:54;5.00;99.90
6841;DHT22;3458;53.678;14.080;2024-02-14T08:48:19;5.00;99.90
6841;DHT22;3458;53.678;14.080;2024-02-14T08:50:45;5.00;99.90
6841;DHT22;3458;53.678;14.080;2024-02-14T08:53:11;5.00;99.90
6841;DHT22;3458;53.678;14.080;2024-02-14T08:55:42;5.00;99.90
6841;DHT22;3458;53.678;14.080;2024-02-14T08:58:08;5.00;99.90
6841;DHT22;3458;53.678;14.080;2024-02-14T09:00:35;5.00;99.90
6841;DHT22;3458;53.678;14.080;2024-02-14T09:03:02;4.90;99.90
6841;DHT22;3458;53.678;14.080;2024-02-14T09:05:28;4.90;99.90
6841;DHT22;3458;53.678;14.080;2024-02-14T09:07:53;5.00;99.90
6841;DHT22;3458;53.678;14.080;2024-02-14T09:10:19;5.00;99.90
6841;DHT22;3458;53.678;14.080;2024-02-14T09:12:45;5.00;99.90
6841;DHT22;3458;53.678;14.080;2024-02-14T09:15:11;5.00;99.90
6841;DHT22;3458;53.678;14.080;2024-02-14T09:17:37;5.00;99.90
6841;DHT22;3458;53.678;14.080;2024-02-14T09:20:04;5.00;99.90
6841;DHT22;3458;53.678;14.080;2024-02-14T09:22:31;5.00;99.90
6841;DHT22;3458;53.678;14.080;2024-02-14T09:24:58;5.10;99.90
6841;DHT22;3458;53.678;14.080;2024-02-14T09:27:24;5.10;99.90
6841;DHT22;3458;53.678;14.080;2024-02-14T09:29:49;5.00;99.90
6841;DHT22;3458;53.678;14.080;2024-02-14T09:32:15;5.10;99.90
6841;DHT22;3458;53.678;14.080;2024-02-14T09:34:40;5.10;99.90
6841;DHT22;3458;53.678;14.080;2024-02-14T09:37:06;5.20;99.90
6841;DHT22;3458;53.678;14.080;2024-02-14T09:39:32;5.30;99.90
6841;DHT22;3458;53.678;14.080;2024-02-14T09:41:59;5.30;99.90
6841;DHT22;3458;53.678;14.080;2024-02-14T09:44:27;5.30;99.90
6841;DHT22;3458;53.678;14.080;2024-02-14T09:46:54;5.30;99.90
6841;DHT22;3458;53.678;14.080;2024-02-14T09:49:21;5.40;99.90
6841;DHT22;3458;53.678;14.080;2024-02-14T09:51:48;5.40;99.90
6841;DHT22;3458;53.678;14.080;2024-02-14T09:54:14;5.40;99.90
6841;DHT22;3458;53.678;14.080;2024-02-14T09:56:41;5.50;99.90
6841;DHT22;3458;53.678;14.080;2024-02-14T09:59:07;5.50;99.90
6841;DHT22;3458;53.678;14.080;2024-02-14T10:01:32;5.50;99.90
6841;DHT22;3458;53.678;14.080;2024-02-14T10:03:58;5.60;99.90
6841;DHT22;3458;53.678;14.080;2024-02-14T10:06:23;5.60;99.90
6841;DHT22;3458;53.678;14.080;2024-02-14T10:08:50;5.50;99.90
6841;DHT22;3458;53.678;14.080;2024-02-14T10:11:17;5.60;99.90
6841;DHT22;3458;53.678;14.080;2024-02-14T10:13:49;5.60;99.90
6841;DHT22;3458;53.678;14.080;2024-02-14T10:16:16;5.60;99.90
6841;DHT22;3458;53.678;14.080;2024-02-14T10:18:44;5.60;99.90
6841;DHT22;3458;53.678;14.080;2024-02-14T10:21:15;5.60;99.90
6841;DHT22;3458;53.678;14.080;2024-02-14T10:23:43;5.70;99.90
6841;DHT22;3458;53.678;14.080;2024-02-14T10:26:08;5.80;99.90
6841;DHT22;3458;53.678;14.080;2024-02-14T10:28:34;5.80;99.90
6841;DHT22;3458;53.678;14.080;2024-02-14T10:31:00;5.80;99.90
6841;DHT22;3458;53.678;14.080;2024-02-14T10:33:28;5.90;99.90
6841;DHT22;3458;53.678;14.080;2024-02-14T10:35:55;5.90;99.90
6841;DHT22;3458;53.678;14.080;2024-02-14T10:38:22;6.00;99.90
6841;DHT22;3458;53.678;14.080;2024-02-14T10:40:49;6.10;99.90
6841;DHT22;3458;53.678;14.080;2024-02-14T10:43:16;6.10;99.90
6841;DHT22;3458;53.678;14.080;2024-02-14T10:45:41;6.00;99.90
6841;DHT22;3458;53.678;14.080;2024-02-14T10:48:11;6.00;99.90
6841;DHT22;3458;53.678;14.080;2024-02-14T10:50:39;6.10;99.90
6841;DHT22;3458;53.678;14.080;2024-02-14T10:53:07;6.10;99.90
6841;DHT22;3458;53.678;14.080;2024-02-14T10:55:35;6.10;99.90
6841;DHT22;3458;53.678;14.080;2024-02-14T10:58:01;6.10;99.90
6841;DHT22;3458;53.678;14.080;2024-02-14T11:00:28;6.20;99.90
6841;DHT22;3458;53.678;14.080;2024-02-14T11:02:55;6.40;99.90
6841;DHT22;3458;53.678;14.080;2024-02-14T11:05:21;6.50;99.90
6841;DHT22;3458;53.678;14.080;2024-02-14T11:07:50;6.60;99.90
6841;DHT22;3458;53.678;14.080;2024-02-14T11:10:19;6.70;99.90
6841;DHT22;3458;53.678;14.080;2024-02-14T11:12:47;6.80;99.90
6841;DHT22;3458;53.678;14.080;2024-02-14T11:15:22;6.80;99.90
6841;DHT22;3458;53.678;14.080;2024-02-14T11:17:49;7.00;99.90
6841;DHT22;3458;53.678;14.080;2024-02-14T11:20:21;6.90;99.90
6841;DHT22;3458;53.678;14.080;2024-02-14T11:22:57;7.00;99.90
6841;DHT22;3458;53.678;14.080;2024-02-14T11:25:30;6.90;99.90
6841;DHT22;3458;53.678;14.080;2024-02-14T11:28:24;6.90;99.90
6841;DHT22;3458;53.678;14.080;2024-02-14T11:30:51;6.90;99.90
6841;DHT22;3458;53.678;14.080;2024-02-14T11:33:24;6.80;99.90
6841;DHT22;3458;53.678;14.080;2024-02-14T11:35:52;6.80;99.90
6841;DHT22;3458;53.678;14.080;2024-02-14T11:38:19;7.00;99.90
6841;DHT22;3458;53.678;14.080;2024-02-14T11:40:44;7.10;99.90
6841;DHT22;3458;53.678;14.080;2024-02-14T11:43:11;7.00;99.90
6841;DHT22;3458;53.678;14.080;2024-02-14T11:45:38;7.00;99.90
6841;DHT22;3458;53.678;14.080;2024-02-14T11:48:08;7.00;99.90
6841;DHT22;3458;53.678;14.080;2024-02-14T11:50:33;6.90;99.90
6841;DHT22;3458;53.678;14.080;2024-02-14T11:52:59;6.80;99.90
6841;DHT22;3458;53.678;14.080;2024-02-14T11:55:28;6.70;99.90
6841;DHT22;3458;53.678;14.080;2024-02-14T11:57:58;6.70;99.90
6841;DHT22;3458;53.678;14.080;2024-02-14T12:00:23;6.60;99.90
6841;DHT22;3458;53.678;14.080;2024-02-14T12:02:50;6.60;99.90
6841;DHT22;3458;53.678;14.080;2024-02-14T12:05:17;6.60;99.90
6841;DHT22;3458;53.678;14.080;2024-02-14T12:07:42;6.50;99.90
6841;DHT22;3458;53.678;14.080;2024-02-14T12:10:09;6.50;99.90
6841;DHT22;3458;53.678;14.080;2024-02-14T12:12:35;6.60;99.90
6841;DHT22;3458;53.678;14.080;2024-02-14T12:15:02;6.60;99.90
6841;DHT22;3458;53.678;14.080;2024-02-14T12:17:27;6.70;99.90
6841;DHT22;3458;53.678;14.080;2024-02-14T12:20:07;6.70;99.90
6841;DHT22;3458;53.678;14.080;2024-02-14T12:22:34;6.70;99.90
6841;DHT22;3458;53.678;14.080;2024-02-14T12:25:00;6.70;99.90
6841;DHT22;3458;53.678;14.080;2024-02-14T12:27:26;6.60;99.90
6841;DHT22;3458;53.678;14.080;2024-02-14T12:29:51;6.60;99.90
6841;DHT22;3458;53.678;14.080;2024-02-14T12:32:17;6.60;99.90
6841;DHT22;3458;53.678;14.080;2024-02-14T12:34:44;6.60;99.90
6841;DHT22;3458;53.678;14.080;2024-02-14T12:37:10;6.50;99.90
6841;DHT22;3458;53.678;14.080;2024-02-14T12:39:36;6.50;99.90
6841;DHT22;3458;53.678;14.080;2024-02-14T12:42:03;6.50;99.90
6841;DHT22;3458;53.678;14.080;2024-02-14T12:44:29;6.40;99.90
6841;DHT22;3458;53.678;14.080;2024-02-14T12:46:54;6.40;99.90
6841;DHT22;3458;53.678;14.080;2024-02-14T12:49:20;6.40;99.90
6841;DHT22;3458;53.678;14.080;2024-02-14T12:51:46;6.40;99.90
6841;DHT22;3458;53.678;14.080;2024-02-14T12:54:11;6.40;99.90
6841;DHT22;3458;53.678;14.080;2024-02-14T12:56:39;6.30;99.90
6841;DHT22;3458;53.678;14.080;2024-02-14T12:59:05;6.40;99.90
6841;DHT22;3458;53.678;14.080;2024-02-14T13:01:31;6.40;99.90
6841;DHT22;3458;53.678;14.080;2024-02-14T13:03:57;6.40;99.90
6841;DHT22;3458;53.678;14.080;2024-02-14T13:06:22;6.40;99.90
6841;DHT22;3458;53.678;14.080;2024-02-14T13:08:48;6.40;99.90
6841;DHT22;3458;53.678;14.080;2024-02-14T13:11:14;6.40;99.90
6841;DHT22;3458;53.678;14.080;2024-02-14T13:13:41;6.40;99.90
6841;DHT22;3458;53.678;14.080;2024-02-14T13:16:08;6.40;99.90
6841;DHT22;3458;53.678;14.080;2024-02-14T13:18:33;6.40;99.90
6841;DHT22;3458;53.678;14.080;2024-02-14T13:21:00;6.40;99.90
6841;DHT22;3458;53.678;14.080;2024-02-14T13:23:26;6.40;99.90
6841;DHT22;3458;53.678;14.080;2024-02-14T13:25:52;6.40;99.90
6841;DHT22;3458;53.678;14.080;2024-02-14T13:28:17;6.40;99.90
6841;DHT22;3458;53.678;14.080;2024-02-14T13:30:44;6.40;99.90
6841;DHT22;3458;53.678;14.080;2024-02-14T13:33:10;6.40;99.90
6841;DHT22;3458;53.678;14.080;2024-02-14T13:35:37;6.40;99.90
6841;DHT22;3458;53.678;14.080;2024-02-14T13:38:07;6.40;99.90
6841;DHT22;3458;53.678;14.080;2024-02-14T13:40:33;6.40;99.90
6841;DHT22;3458;53.678;14.080;2024-02-14T13:42:59;6.40;99.90
6841;DHT22;3458;53.678;14.080;2024-02-14T13:45:24;6.40;99.90
6841;DHT22;3458;53.678;14.080;2024-02-14T13:47:51;6.40;99.90
6841;DHT22;3458;53.678;14.080;2024-02-14T13:50:17;6.40;99.90
6841;DHT22;3458;53.678;14.080;2024-02-14T13:52:43;6.30;99.90
6841;DHT22;3458;53.678;14.080;2024-02-14T13:55:09;6.30;99.90
6841;DHT22;3458;53.678;14.080;2024-02-14T13:57:38;6.30;99.90
6841;DHT22;3458;53.678;14.080;2024-02-14T14:00:08;6.30;99.90
6841;DHT22;3458;53.678;14.080;2024-02-14T14:02:37;6.40;99.90
6841;DHT22;3458;53.678;14.080;2024-02-14T14:05:09;6.30;99.90
6841;DHT22;3458;53.678;14.080;2024-02-14T14:07:39;6.30;99.90
6841;DHT22;3458;53.678;14.080;2024-02-14T14:10:05;6.30;99.90
6841;DHT22;3458;53.678;14.080;2024-02-14T14:12:31;6.30;99.90
6841;DHT22;3458;53.678;14.080;2024-02-14T14:14:57;6.30;99.90
6841;DHT22;3458;53.678;14.080;2024-02-14T14:17:22;6.30;99.90
6841;DHT22;3458;53.678;14.080;2024-02-14T14:19:48;6.30;99.90
6841;DHT22;3458;53.678;14.080;2024-02-14T14:22:13;6.40;99.90
6841;DHT22;3458;53.678;14.080;2024-02-14T14:24:40;6.40;99.90
6841;DHT22;3458;53.678;14.080;2024-02-14T14:27:05;6.40;99.90
6841;DHT22;3458;53.678;14.080;2024-02-14T14:29:34;6.50;99.90
6841;DHT22;3458;53.678;14.080;2024-02-14T14:32:00;6.50;99.90
6841;DHT22;3458;53.678;14.080;2024-02-14T14:34:26;6.50;99.90
6841;DHT22;3458;53.678;14.080;2024-02-14T14:36:52;6.40;99.90
6841;DHT22;3458;53.678;14.080;2024-02-14T14:39:20;6.40;99.90
6841;DHT22;3458;53.678;14.080;2024-02-14T14:41:45;6.40;99.90
6841;DHT22;3458;53.678;14.080;2024-02-14T14:44:11;6.40;99.90
6841;DHT22;3458;53.678;14.080;2024-02-14T14:46:37;6.40;99.90
6841;DHT22;3458;53.678;14.080;2024-02-14T14:49:10;6.50;99.90
6841;DHT22;3458;53.678;14.080;2024-02-14T14:51:36;6.50;99.90
6841;DHT22;3458;53.678;14.080;2024-02-14T14:54:03;6.50;99.90
6841;DHT22;3458;53.678;14.080;2024-02-14T14:56:29;6.60;99.90
6841;DHT22;3458;53.678;14.080;2024-02-14T14:58:55;6.60;99.90
6841;DHT22;3458;53.678;14.080;2024-02-14T15:01:21;6.60;99.90
6841;DHT22;3458;53.678;14.080;2024-02-14T15:03:46;6.60;99.90
6841;DHT22;3458;53.678;14.080;2024-02-14T15:06:12;6.60;99.90
6841;DHT22;3458;53.678;14.080;2024-02-14T15:08:40;6.50;99.90
6841;DHT22;3458;53.678;14.080;2024-02-14T15:11:10;6.50;99.90
6841;DHT22;3458;53.678;14.080;2024-02-14T15:13:40;6.50;99.90
6841;DHT22;3458;53.678;14.080;2024-02-14T15:16:06;6.60;99.90
6841;DHT22;3458;53.678;14.080;2024-02-14T15:18:33;6.60;99.90
6841;DHT22;3458;53.678;14.080;2024-02-14T15:20:59;6.50;99.90
6841;DHT22;3458;53.678;14.080;2024-02-14T15:23:25;6.60;99.90
6841;DHT22;3458;53.678;14.080;2024-02-14T15:25:51;6.50;99.90
6841;DHT22;3458;53.678;14.080;2024-02-14T15:28:17;6.50;99.90
6841;DHT22;3458;53.678;14.080;2024-02-14T15:30:51;6.50;99.90
6841;DHT22;3458;53.678;14.080;2024-02-14T15:33:35;6.50;99.90
6841;DHT22;3458;53.678;14.080;2024-02-14T15:36:01;6.50;99.90
6841;DHT22;3458;53.678;14.080;2024-02-14T15:38:26;6.50;99.90
6841;DHT22;3458;53.678;14.080;2024-02-14T15:40:53;6.60;99.90
6841;DHT22;3458;53.678;14.080;2024-02-14T15:43:22;6.50;99.90
6841;DHT22;3458;53.678;14.080;2024-02-14T15:45:48;6.50;99.90
6841;DHT22;3458;53.678;14.080;2024-02-14T15:48:14;6.50;99.90
6841;DHT22;3458;53.678;14.080;2024-02-14T15:50:41;6.50;99.90
6841;DHT22;3458;53.678;14.080;2024-02-14T15:53:08;6.50;99.90
6841;DHT22;3458;53.678;14.080;2024-02-14T15:55:34;6.50;99.90
6841;DHT22;3458;53.678;14.080;2024-02-14T15:58:03;6.50;99.90